Airport Name : Magdeburg Cochstedt

Other Name : Cochstedt

ICAO : EDBC

IATA : CSO

FAA :

Latitude : 51.51

Longitude : 11.25

Country : Germany

Local Date and Time : 20 Jul 2024 08:14

 

TAF (Terminal Aerodrome Forecast)

 

METAR (METeorological Aerodrome Report)

EDBC 200550Z AUTO 03004KT 9999 // SCT070/// 20/13 Q1015

EDBC 200520Z AUTO 06003KT 9999 // FEW070/// 20/12 Q1015

EDBC 200450Z AUTO 36002KT 9999 // NCD 19/13 Q1015

EDBC 200420Z AUTO 01004KT 9999 // NCD 17/12 Q1015

EDBC 200350Z AUTO 02003KT 360V060 9999 // NCD 18/12 Q1015

EDBC 200320Z AUTO 36006KT 9999 // NCD 16/12 Q1015

EDBC 200250Z AUTO 01005KT 9999 // NCD 17/12 Q1016

EDBC 200220Z AUTO 01005KT 9999 // NCD 17/12 Q1016